createdAt,value
2023-03-05T00:01:24.798Z,4.50
2023-03-05T00:03:55.525Z,4.50
2023-03-05T00:06:25.562Z,4.50
2023-03-05T00:08:54.007Z,4.40
2023-03-05T00:11:22.445Z,4.40
2023-03-05T00:13:53.112Z,4.40
2023-03-05T00:16:21.553Z,4.40
2023-03-05T00:18:49.978Z,4.40
2023-03-05T00:21:24.869Z,4.30
2023-03-05T00:23:53.371Z,4.30
2023-03-05T00:26:21.991Z,4.30
2023-03-05T00:28:51.858Z,4.20
2023-03-05T00:31:21.287Z,4.20
2023-03-05T00:33:53.076Z,4.10
2023-03-05T00:36:22.757Z,4.00
2023-03-05T00:38:51.034Z,4.00
2023-03-05T00:41:19.322Z,4.00
2023-03-05T00:43:48.399Z,3.90
2023-03-05T00:46:16.733Z,3.80
2023-03-05T00:48:45.341Z,3.80
2023-03-05T00:51:13.765Z,3.70
2023-03-05T00:53:43.387Z,3.70
2023-03-05T00:56:11.679Z,3.60
2023-03-05T00:58:39.959Z,3.50
2023-03-05T01:01:08.360Z,3.50
2023-03-05T01:03:36.742Z,3.50
2023-03-05T01:06:06.685Z,3.50
2023-03-05T01:08:35.122Z,3.50
2023-03-05T01:11:06.667Z,3.40
2023-03-05T01:13:34.946Z,3.40
2023-03-05T01:16:03.419Z,3.40
2023-03-05T01:18:31.804Z,3.40
2023-03-05T01:21:00.044Z,3.40
2023-03-05T01:23:28.455Z,3.50
2023-03-05T01:25:57.315Z,3.50
2023-03-05T01:28:27.158Z,3.50
2023-03-05T01:30:55.391Z,3.40
2023-03-05T01:33:23.640Z,3.40
2023-03-05T01:35:51.969Z,3.40
2023-03-05T01:38:20.243Z,3.40
2023-03-05T01:40:48.619Z,3.40
2023-03-05T01:43:27.121Z,3.40
2023-03-05T01:46:31.449Z,3.40
2023-03-05T01:49:17.957Z,3.40
2023-03-05T01:51:56.471Z,3.30
2023-03-05T01:54:27.778Z,3.40
2023-03-05T01:56:56.952Z,3.40
2023-03-05T01:59:26.721Z,3.30
2023-03-05T02:01:57.501Z,3.20
2023-03-05T02:04:29.954Z,3.20
2023-03-05T02:06:58.528Z,3.20
2023-03-05T02:09:28.750Z,3.10
2023-03-05T02:11:57.117Z,3.10
2023-03-05T02:14:26.713Z,3.10
2023-03-05T02:16:55.038Z,3.10
2023-03-05T02:19:23.426Z,3.10
2023-03-05T02:21:53.137Z,3.00
2023-03-05T02:24:35.737Z,3.00
2023-03-05T02:27:05.099Z,3.00
2023-03-05T02:29:33.596Z,2.90
2023-03-05T02:32:02.303Z,2.90
2023-03-05T02:34:30.722Z,2.90
2023-03-05T02:37:01.723Z,2.90
2023-03-05T02:39:30.150Z,2.90
2023-03-05T02:41:58.493Z,2.80
2023-03-05T02:44:27.079Z,2.90
2023-03-05T02:46:55.701Z,2.80
2023-03-05T02:49:23.985Z,2.80
2023-03-05T02:51:52.266Z,2.80
2023-03-05T02:54:22.553Z,2.80
2023-03-05T02:56:51.027Z,2.80
2023-03-05T02:59:19.317Z,2.80
2023-03-05T03:01:47.585Z,2.80
2023-03-05T03:04:15.849Z,2.80
2023-03-05T03:06:44.423Z,2.80
2023-03-05T03:09:12.782Z,2.80
2023-03-05T03:11:42.337Z,2.80
2023-03-05T03:14:10.645Z,2.80
2023-03-05T03:16:38.983Z,2.80
2023-03-05T03:19:07.247Z,2.80
2023-03-05T03:21:35.453Z,2.80
2023-03-05T03:24:03.714Z,2.80
2023-03-05T03:26:31.948Z,2.80
2023-03-05T03:29:01.632Z,2.80
2023-03-05T03:31:29.889Z,2.80
2023-03-05T03:33:58.199Z,2.80
2023-03-05T03:36:26.417Z,2.80
2023-03-05T03:38:54.660Z,2.80
2023-03-05T03:41:22.895Z,2.90
2023-03-05T03:43:51.181Z,2.90
2023-03-05T03:46:21.005Z,2.80
2023-03-05T03:48:51.748Z,2.80
2023-03-05T03:51:20.003Z,2.80
2023-03-05T03:53:48.900Z,2.80
2023-03-05T03:56:17.453Z,2.80
2023-03-05T03:58:45.992Z,2.80
2023-03-05T04:01:14.283Z,2.70
2023-03-05T04:03:43.973Z,2.80
2023-03-05T04:06:12.383Z,2.70
2023-03-05T04:08:40.875Z,2.70
2023-03-05T04:11:10.077Z,2.70
2023-03-05T04:13:38.357Z,2.70
2023-03-05T04:16:07.779Z,2.70
2023-03-05T04:18:36.133Z,2.60
2023-03-05T04:21:06.413Z,2.60
2023-03-05T04:23:34.673Z,2.60
2023-03-05T04:26:02.915Z,2.60
2023-03-05T04:28:31.313Z,2.60
2023-03-05T04:30:59.584Z,2.60
2023-03-05T04:33:27.913Z,2.50
2023-03-05T04:35:56.211Z,2.50
2023-03-05T04:38:25.901Z,2.40
2023-03-05T04:40:54.196Z,2.40
2023-03-05T04:43:22.655Z,2.30
2023-03-05T04:45:50.928Z,2.20
2023-03-05T04:48:19.228Z,2.20
2023-03-05T04:50:47.536Z,2.20
2023-03-05T04:53:15.842Z,2.10
2023-03-05T04:55:45.937Z,2.10
2023-03-05T04:58:14.161Z,2.10
2023-03-05T05:00:42.619Z,2.10
2023-03-05T05:03:10.987Z,2.10
2023-03-05T05:05:39.359Z,2.10
2023-03-05T05:08:07.830Z,2.00
2023-03-05T05:10:38.566Z,2.00
2023-03-05T05:13:08.270Z,2.00
2023-03-05T05:15:36.650Z,2.00
2023-03-05T05:18:05.059Z,2.00
2023-03-05T05:20:33.400Z,2.00
2023-03-05T05:23:01.671Z,2.10
2023-03-05T05:25:29.897Z,2.00
2023-03-05T05:27:58.156Z,2.00
2023-03-05T05:30:27.816Z,2.00
2023-03-05T05:32:56.109Z,2.00
2023-03-05T05:35:24.437Z,2.00
2023-03-05T05:37:52.712Z,1.90
2023-03-05T05:40:21.241Z,1.90
2023-03-05T05:42:49.493Z,1.90
2023-03-05T05:45:17.986Z,1.90
2023-03-05T05:47:47.705Z,1.80
2023-03-05T05:50:16.467Z,1.80
2023-03-05T05:52:44.716Z,1.90
2023-03-05T05:55:13.568Z,1.90
2023-03-05T05:57:42.020Z,1.90
2023-03-05T06:00:12.298Z,1.90
2023-03-05T06:02:42.145Z,2.00
2023-03-05T06:05:13.049Z,2.00
2023-03-05T06:07:41.355Z,2.00
2023-03-05T06:10:11.671Z,2.10
2023-03-05T06:12:39.952Z,2.10
2023-03-05T06:15:09.778Z,2.10
2023-03-05T06:17:38.023Z,2.10
2023-03-05T06:20:07.750Z,2.20
2023-03-05T06:22:38.728Z,2.20
2023-03-05T06:25:08.584Z,2.30
2023-03-05T06:27:37.105Z,2.30
2023-03-05T06:30:06.320Z,2.40
2023-03-05T06:32:34.613Z,2.40
2023-03-05T06:35:02.976Z,2.40
2023-03-05T06:37:31.208Z,2.50
2023-03-05T06:40:01.008Z,2.50
2023-03-05T06:42:29.367Z,2.60
2023-03-05T06:44:57.605Z,2.70
2023-03-05T06:47:25.912Z,2.70
2023-03-05T06:49:54.189Z,2.80
2023-03-05T06:52:22.461Z,2.90
2023-03-05T06:54:50.831Z,2.90
2023-03-05T06:57:20.538Z,3.00
2023-03-05T06:59:48.799Z,3.00
2023-03-05T07:02:19.107Z,3.10
2023-03-05T07:04:47.642Z,3.10
2023-03-05T07:07:16.009Z,3.10
2023-03-05T07:09:45.937Z,3.10
2023-03-05T07:12:14.344Z,3.10
2023-03-05T07:14:44.019Z,3.10
2023-03-05T07:17:12.285Z,3.10
2023-03-05T07:19:40.542Z,3.20
2023-03-05T07:22:08.804Z,3.20
2023-03-05T07:24:37.078Z,3.30
2023-03-05T07:27:05.934Z,3.40
2023-03-05T07:29:34.245Z,3.40
2023-03-05T07:32:03.954Z,3.50
2023-03-05T07:34:32.378Z,3.40
2023-03-05T07:37:00.672Z,3.40
2023-03-05T07:39:29.092Z,3.40
2023-03-05T07:41:57.397Z,3.40
2023-03-05T07:44:25.672Z,3.40
2023-03-05T07:46:53.962Z,3.40
2023-03-05T07:49:23.792Z,3.40
2023-03-05T07:51:52.480Z,3.50
2023-03-05T07:54:20.766Z,3.50
2023-03-05T07:56:49.043Z,3.50
2023-03-05T07:59:17.360Z,3.50
2023-03-05T08:01:46.323Z,3.50
2023-03-05T08:04:14.987Z,3.60
2023-03-05T08:06:46.863Z,3.70
2023-03-05T08:09:15.359Z,3.70
2023-03-05T08:11:43.651Z,3.80
2023-03-05T08:14:12.600Z,3.80
2023-03-05T08:16:40.982Z,3.80
2023-03-05T08:19:09.329Z,3.80
2023-03-05T08:21:37.733Z,3.70
2023-03-05T08:24:09.058Z,3.70
2023-03-05T08:26:38.769Z,3.80
2023-03-05T08:29:07.413Z,3.80
2023-03-05T08:31:35.971Z,3.90
2023-03-05T08:34:04.614Z,4.00
2023-03-05T08:36:33.024Z,3.90
2023-03-05T08:39:01.345Z,3.90
2023-03-05T08:41:30.986Z,4.00
2023-03-05T08:43:59.965Z,4.10
2023-03-05T08:46:28.293Z,4.30
2023-03-05T08:48:56.550Z,4.60
2023-03-05T08:51:25.960Z,4.80
2023-03-05T08:53:54.485Z,5.00
2023-03-05T08:56:22.713Z,5.00
2023-03-05T08:58:53.064Z,5.00
2023-03-05T09:01:22.554Z,5.00
2023-03-05T09:03:50.924Z,4.90
2023-03-05T09:06:19.277Z,4.80
2023-03-05T09:08:48.028Z,4.80
2023-03-05T09:11:17.000Z,4.80
2023-03-05T09:13:45.277Z,4.80
2023-03-05T09:16:16.914Z,4.90
2023-03-05T09:18:45.276Z,4.90
2023-03-05T09:21:14.867Z,5.00
2023-03-05T09:23:44.825Z,5.20
2023-03-05T09:26:13.502Z,5.40
2023-03-05T09:28:41.861Z,5.50
2023-03-05T09:31:10.793Z,5.70
2023-03-05T09:33:40.463Z,5.70
2023-03-05T09:36:19.698Z,5.60
2023-03-05T09:38:48.025Z,5.40
2023-03-05T09:41:22.839Z,5.20
2023-03-05T09:43:56.580Z,5.00
2023-03-05T09:46:43.794Z,4.90
2023-03-05T09:49:21.811Z,4.80
2023-03-05T09:51:53.138Z,4.70
2023-03-05T09:54:22.789Z,4.70
2023-03-05T09:56:56.577Z,4.60
2023-03-05T09:59:30.393Z,4.60
2023-03-05T10:02:01.262Z,4.70
2023-03-05T10:04:42.008Z,4.80
2023-03-05T10:07:14.988Z,4.90
2023-03-05T10:09:46.462Z,5.20
2023-03-05T10:12:23.364Z,5.40
2023-03-05T10:14:51.670Z,5.50
2023-03-05T10:17:55.926Z,5.50
2023-03-05T10:20:55.536Z,5.40
2023-03-05T10:23:38.559Z,5.20
2023-03-05T10:26:31.074Z,5.00
2023-03-05T10:29:14.552Z,5.00
2023-03-05T10:31:51.619Z,4.90
2023-03-05T10:34:42.321Z,4.90
2023-03-05T10:38:04.174Z,4.80
2023-03-05T10:40:36.315Z,4.70
2023-03-05T10:43:13.027Z,4.70
2023-03-05T10:45:43.130Z,4.70
2023-03-05T10:48:16.962Z,4.60
2023-03-05T10:50:48.975Z,4.40
2023-03-05T10:53:23.092Z,4.30
2023-03-05T10:55:56.233Z,4.20
2023-03-05T10:58:25.399Z,4.10
2023-03-05T11:01:02.775Z,4.10
2023-03-05T11:03:50.108Z,4.20
2023-03-05T11:06:28.841Z,4.10
2023-03-05T11:08:57.721Z,4.00
2023-03-05T11:11:28.745Z,3.90
2023-03-05T11:13:58.721Z,3.90
2023-03-05T11:16:28.239Z,3.90
2023-03-05T11:19:20.238Z,3.90
2023-03-05T11:21:49.176Z,4.00
2023-03-05T11:24:19.024Z,4.00
2023-03-05T11:26:50.516Z,3.90
2023-03-05T11:29:22.457Z,3.90
2023-03-05T11:31:50.797Z,3.90
2023-03-05T11:34:31.550Z,3.90
2023-03-05T11:37:06.260Z,4.00
2023-03-05T11:39:37.204Z,4.20
2023-03-05T11:42:08.455Z,4.30
2023-03-05T11:44:45.783Z,4.40
2023-03-05T11:47:21.688Z,4.40
2023-03-05T11:49:52.364Z,4.40
2023-03-05T11:52:23.826Z,4.40
2023-03-05T11:54:58.098Z,4.30
2023-03-05T11:57:27.866Z,4.30
2023-03-05T11:59:57.001Z,4.40
2023-03-05T12:02:27.142Z,4.40
2023-03-05T12:04:56.003Z,4.50
2023-03-05T12:07:36.825Z,4.70
2023-03-05T12:10:05.590Z,4.80
2023-03-05T12:12:40.894Z,4.90
2023-03-05T12:15:34.966Z,4.90
2023-03-05T12:18:12.943Z,4.80
2023-03-05T12:20:45.348Z,4.70
2023-03-05T12:23:19.238Z,4.60
2023-03-05T12:25:49.368Z,4.50
2023-03-05T12:28:55.361Z,4.30
2023-03-05T12:31:37.902Z,4.20
2023-03-05T12:34:47.111Z,4.10
2023-03-05T12:37:31.552Z,4.10
2023-03-05T12:40:01.039Z,4.30
2023-03-05T12:42:55.863Z,4.60
2023-03-05T12:45:40.544Z,4.70
2023-03-05T12:48:54.623Z,4.90
2023-03-05T12:51:40.782Z,5.10
2023-03-05T12:54:31.747Z,5.20
2023-03-05T12:57:01.005Z,5.20
2023-03-05T12:59:43.476Z,5.20
2023-03-05T13:02:28.905Z,5.20
2023-03-05T13:05:00.511Z,5.10
2023-03-05T13:07:28.815Z,5.10
2023-03-05T13:09:57.855Z,5.20
2023-03-05T13:12:27.440Z,5.20
2023-03-05T13:15:03.490Z,5.20
2023-03-05T13:17:39.164Z,5.20
2023-03-05T13:20:30.180Z,5.20
2023-03-05T13:23:21.090Z,5.20
2023-03-05T13:26:00.873Z,5.20
2023-03-05T13:28:29.288Z,5.30
2023-03-05T13:30:59.327Z,5.40
2023-03-05T13:33:30.653Z,5.60
2023-03-05T13:35:59.010Z,5.70
2023-03-05T13:38:32.752Z,5.70
2023-03-05T13:41:18.121Z,5.70
2023-03-05T13:43:46.771Z,5.70
2023-03-05T13:46:15.205Z,5.80
2023-03-05T13:48:44.928Z,5.70
2023-03-05T13:51:14.702Z,5.70
2023-03-05T13:53:43.058Z,5.70
2023-03-05T13:56:15.762Z,5.70
2023-03-05T13:58:48.417Z,5.70
2023-03-05T14:01:29.564Z,5.70
2023-03-05T14:04:01.350Z,5.70
2023-03-05T14:06:30.929Z,5.60
2023-03-05T14:09:07.374Z,5.60
2023-03-05T14:11:35.808Z,5.60
2023-03-05T14:14:10.106Z,5.60
2023-03-05T14:16:38.628Z,5.60
2023-03-05T14:19:10.358Z,5.60
2023-03-05T14:21:47.026Z,5.70
2023-03-05T14:24:21.012Z,5.70
2023-03-05T14:26:52.143Z,5.70
2023-03-05T14:29:23.192Z,5.40
2023-03-05T14:31:52.989Z,5.30
2023-03-05T14:34:28.302Z,5.30
2023-03-05T14:36:59.240Z,5.20
2023-03-05T14:39:42.516Z,5.10
2023-03-05T14:42:30.209Z,4.90
2023-03-05T14:44:59.997Z,4.70
2023-03-05T14:47:28.727Z,4.60
2023-03-05T14:49:58.380Z,4.40
2023-03-05T14:52:26.922Z,4.40
2023-03-05T14:54:55.198Z,4.40
2023-03-05T14:57:24.934Z,4.50
2023-03-05T14:59:55.489Z,4.50
2023-03-05T15:02:25.197Z,4.50
2023-03-05T15:04:53.804Z,4.50
2023-03-05T15:07:26.403Z,4.40
2023-03-05T15:09:54.718Z,4.40
2023-03-05T15:12:24.729Z,4.50
2023-03-05T15:14:53.326Z,4.50
2023-03-05T15:17:23.154Z,4.50
2023-03-05T15:19:51.571Z,4.50
2023-03-05T15:22:19.819Z,4.50
2023-03-05T15:24:49.643Z,4.50
2023-03-05T15:27:17.962Z,4.50
2023-03-05T15:29:46.246Z,4.60
2023-03-05T15:32:14.590Z,4.60
2023-03-05T15:34:42.994Z,4.60
2023-03-05T15:37:11.282Z,4.50
2023-03-05T15:39:39.614Z,4.40
2023-03-05T15:42:09.454Z,4.40
2023-03-05T15:44:39.968Z,4.30
2023-03-05T15:47:08.213Z,4.30
2023-03-05T15:49:37.208Z,4.30
2023-03-05T15:52:05.526Z,4.20
2023-03-05T15:54:33.785Z,4.20
2023-03-05T15:57:02.086Z,4.20
2023-03-05T15:59:31.835Z,4.20
2023-03-05T16:02:00.302Z,4.20
2023-03-05T16:04:29.265Z,4.10
2023-03-05T16:06:58.926Z,4.10
2023-03-05T16:09:27.247Z,4.10
2023-03-05T16:11:55.569Z,4.10
2023-03-05T16:14:26.101Z,4.00
2023-03-05T16:16:56.321Z,4.00
2023-03-05T16:19:24.638Z,4.00
2023-03-05T16:21:52.903Z,3.90
2023-03-05T16:24:21.154Z,3.80
2023-03-05T16:26:49.418Z,3.80
2023-03-05T16:29:17.693Z,3.70
2023-03-05T16:31:46.786Z,3.70
2023-03-05T16:34:16.558Z,3.70
2023-03-05T16:36:48.918Z,3.70
2023-03-05T16:39:17.258Z,3.70
2023-03-05T16:41:45.538Z,3.70
2023-03-05T16:44:14.254Z,3.60
2023-03-05T16:46:43.925Z,3.60
2023-03-05T16:49:12.310Z,3.60
2023-03-05T16:51:41.986Z,3.60
2023-03-05T16:54:10.372Z,3.60
2023-03-05T16:56:38.757Z,3.50
2023-03-05T16:59:07.127Z,3.60
2023-03-05T17:01:35.405Z,3.60
2023-03-05T17:04:03.797Z,3.60
2023-03-05T17:06:32.591Z,3.50
2023-03-05T17:09:02.793Z,3.60
2023-03-05T17:11:31.197Z,3.60
2023-03-05T17:13:59.483Z,3.60
2023-03-05T17:16:28.093Z,3.60
2023-03-05T17:18:56.432Z,3.60
2023-03-05T17:21:24.787Z,3.60
2023-03-05T17:23:53.003Z,3.60
2023-03-05T17:26:22.646Z,3.60
2023-03-05T17:28:52.478Z,3.60
2023-03-05T17:31:21.868Z,3.60
2023-03-05T17:33:50.844Z,3.60
2023-03-05T17:36:20.896Z,3.60
2023-03-05T17:38:49.183Z,3.60
2023-03-05T17:41:17.961Z,3.60
2023-03-05T17:43:47.580Z,3.60
2023-03-05T17:46:16.737Z,3.60
2023-03-05T17:48:45.082Z,3.60
2023-03-05T17:51:14.466Z,3.60
2023-03-05T17:53:42.743Z,3.60
2023-03-05T17:56:12.070Z,3.60
2023-03-05T17:58:40.415Z,3.60
2023-03-05T18:01:10.211Z,3.50
2023-03-05T18:03:38.518Z,3.50
2023-03-05T18:06:07.658Z,3.50
2023-03-05T18:08:35.943Z,3.50
2023-03-05T18:11:04.413Z,3.50
2023-03-05T18:13:32.666Z,3.50
2023-03-05T18:16:01.022Z,3.50
2023-03-05T18:18:30.685Z,3.50
2023-03-05T18:20:58.965Z,3.50
2023-03-05T18:23:27.314Z,3.40
2023-03-05T18:25:55.547Z,3.40
2023-03-05T18:28:25.752Z,3.30
2023-03-05T18:30:54.033Z,3.30
2023-03-05T18:33:23.887Z,3.20
2023-03-05T18:35:53.788Z,3.20
2023-03-05T18:38:22.182Z,3.20
2023-03-05T18:40:51.215Z,3.20
2023-03-05T18:43:20.441Z,3.20
2023-03-05T18:45:49.358Z,3.20
2023-03-05T18:48:17.697Z,3.20
2023-03-05T18:50:45.949Z,3.10
2023-03-05T18:53:15.772Z,3.00
2023-03-05T18:55:46.406Z,3.00
2023-03-05T18:58:15.420Z,3.00
2023-03-05T19:00:43.929Z,2.90
2023-03-05T19:03:12.558Z,2.90
2023-03-05T19:05:40.913Z,2.90
2023-03-05T19:08:09.227Z,2.80
2023-03-05T19:10:38.902Z,2.80
2023-03-05T19:13:18.651Z,2.80
2023-03-05T19:15:46.964Z,2.80
2023-03-05T19:18:15.265Z,2.80
2023-03-05T19:20:43.523Z,2.80
2023-03-05T19:23:11.906Z,2.80
2023-03-05T19:25:43.042Z,2.80
2023-03-05T19:28:11.335Z,2.80
2023-03-05T19:30:39.746Z,2.70
2023-03-05T19:33:08.078Z,2.70
2023-03-05T19:35:36.482Z,2.60
2023-03-05T19:38:04.772Z,2.60
2023-03-05T19:40:33.019Z,2.60
2023-03-05T19:43:02.780Z,2.60
2023-03-05T19:45:33.792Z,2.70
2023-03-05T19:48:02.154Z,2.70
2023-03-05T19:50:31.395Z,2.70
2023-03-05T19:53:00.624Z,2.70
2023-03-05T19:55:29.044Z,2.80
2023-03-05T19:57:57.258Z,2.80
2023-03-05T20:00:28.076Z,2.80
2023-03-05T20:02:56.307Z,2.80
2023-03-05T20:05:25.618Z,2.80
2023-03-05T20:07:53.904Z,2.80
2023-03-05T20:10:23.357Z,2.80
2023-03-05T20:12:51.660Z,2.80
2023-03-05T20:15:21.192Z,2.90
2023-03-05T20:17:53.325Z,2.90
2023-03-05T20:20:21.795Z,2.90
2023-03-05T20:22:50.070Z,2.90
2023-03-05T20:25:21.109Z,3.00
2023-03-05T20:27:49.427Z,3.00
2023-03-05T20:30:18.712Z,3.00
2023-03-05T20:32:47.041Z,2.90
2023-03-05T20:35:18.052Z,2.90
2023-03-05T20:38:00.124Z,2.90
2023-03-05T20:40:28.520Z,2.90
2023-03-05T20:42:56.781Z,2.90
2023-03-05T20:45:25.043Z,2.90
2023-03-05T20:47:53.323Z,2.90
2023-03-05T20:50:23.658Z,2.90
2023-03-05T20:52:51.929Z,2.90
2023-03-05T20:55:20.186Z,2.90
2023-03-05T20:57:48.487Z,2.90
2023-03-05T21:00:18.073Z,2.90
2023-03-05T21:02:46.318Z,2.90
2023-03-05T21:05:14.789Z,2.90
2023-03-05T21:07:44.411Z,3.00
2023-03-05T21:10:14.024Z,3.00
2023-03-05T21:12:42.341Z,3.00
2023-03-05T21:15:11.463Z,3.00
2023-03-05T21:17:39.965Z,3.00
2023-03-05T21:20:13.188Z,3.00
2023-03-05T21:22:42.838Z,2.90
2023-03-05T21:25:20.594Z,2.90
2023-03-05T21:27:51.336Z,2.80
2023-03-05T21:30:20.047Z,2.80
2023-03-05T21:32:48.382Z,2.80
2023-03-05T21:35:19.799Z,2.80
2023-03-05T21:37:49.610Z,2.80
2023-03-05T21:40:18.906Z,2.90
2023-03-05T21:42:47.363Z,2.90
2023-03-05T21:45:18.172Z,3.00
2023-03-05T21:47:46.445Z,3.00
2023-03-05T21:50:15.171Z,3.00
2023-03-05T21:52:43.736Z,3.00
2023-03-05T21:55:15.485Z,3.00
2023-03-05T21:57:43.904Z,2.90
2023-03-05T22:00:13.557Z,3.00
2023-03-05T22:02:42.250Z,2.90
2023-03-05T22:05:13.347Z,3.00
2023-03-05T22:07:41.652Z,2.90
2023-03-05T22:10:13.911Z,2.90
2023-03-05T22:12:53.320Z,3.00
2023-03-05T22:15:22.112Z,3.00
2023-03-05T22:17:50.437Z,3.00
2023-03-05T22:20:20.059Z,3.00
2023-03-05T22:22:48.297Z,3.00
2023-03-05T22:25:18.206Z,3.00
2023-03-05T22:27:46.450Z,3.00
2023-03-05T22:30:16.430Z,3.00
2023-03-05T22:32:44.687Z,3.00
2023-03-05T22:35:14.436Z,3.00
2023-03-05T22:37:43.043Z,3.00
2023-03-05T22:40:14.736Z,2.90
2023-03-05T22:42:44.844Z,2.90
2023-03-05T22:45:13.741Z,2.90
2023-03-05T22:47:42.012Z,3.00
2023-03-05T22:50:12.306Z,3.00
2023-03-05T22:52:40.687Z,2.90
2023-03-05T22:55:11.730Z,2.90
2023-03-05T22:57:40.005Z,2.90
2023-03-05T23:00:13.539Z,2.90
2023-03-05T23:02:42.285Z,2.90
2023-03-05T23:05:11.417Z,2.80
2023-03-05T23:07:41.145Z,2.80
2023-03-05T23:10:12.443Z,2.80
2023-03-05T23:12:44.001Z,2.80
2023-03-05T23:15:15.324Z,2.90
2023-03-05T23:17:43.818Z,2.90
2023-03-05T23:20:14.460Z,2.80
2023-03-05T23:22:42.750Z,2.90
2023-03-05T23:25:11.765Z,2.90
2023-03-05T23:27:40.332Z,2.90
2023-03-05T23:30:17.474Z,2.90
2023-03-05T23:32:49.242Z,2.80
2023-03-05T23:35:19.417Z,2.80
2023-03-05T23:37:48.055Z,2.80
2023-03-05T23:40:18.538Z,2.80
2023-03-05T23:42:46.978Z,2.70
2023-03-05T23:45:17.971Z,2.70
2023-03-05T23:47:48.173Z,2.70
2023-03-05T23:50:17.963Z,2.70
2023-03-05T23:52:46.532Z,2.70
2023-03-05T23:55:16.992Z,2.70
2023-03-05T23:57:45.415Z,2.70
